West Palm Beach, FL

9:32 AM EDT on August 03, 2015 (GMT -0400)
foxhall | | Change Station
CLOSE
Current Station
Personal Weather Station
Location: West Palm Beach, FL
Elevation: 36 ft
Nearby Weather Stations

Elev 36 ft 26.74 °N, 80.12 °W | Updated 22 seconds ago

Mostly Cloudy
Mostly Cloudy
90.9 °F
Feels Like 109 °F
N
3.1
Wind Variable Wind from West
Gusts 8.3 mph

Today
High -- | Low -- °F
--% Chance of Precip.
Yesterday
High -- | Low -- °F
Precip. -- in
6:46 AM 8:06 PM
Waning Gibbous, 87% visible
Pressure 29.99 in
Visibility 10.0 miles
Clouds Few 2500 ft
Scattered Clouds 14000 ft
Mostly Cloudy 25000 ft
Heat Index 109 °F
Dew Point 80 °F
Humidity 70%
Rainfall 0.00 in
Snow Depth Not available.
UV 2 out of 12
Pollen 4.10 out of 12
Air Quality Not available.
Flu Activity Not available.
METAR KPBI 031253Z 18007KT 10SM FEW025 SCT140 BKN250 28/24 A2999 RMK AO2 SLP156 T02780239

More Conditions Fewer Conditions

Pressure 29.99 in
Visibility 10.0 miles
Clouds Few 2500 ft
Scattered Clouds 14000 ft
Mostly Cloudy 25000 ft
Heat Index 109 °F
Dew Point 80 °F
Humidity 70%
Rainfall 0.00 in
Snow Depth Not available.
UV 2 out of 12
Pollen 4.10 out of 12
Air Quality Not available.
Flu Activity Not available.
METAR KPBI 031253Z 18007KT 10SM FEW025 SCT140 BKN250 28/24 A2999 RMK AO2 SLP156 T02780239

More Conditions Fewer Conditions

10-Day Weather Forecast

×

Almanac

Astronomy

Aug. 03, 2015 Rise Set
Actual Time
Civil Twilight
Nautical Twilight
Astronomical Twilight
Moon
Length of Visible Light
Length of Day
Tomorrow will be .
, % of the Moon is Illuminated

Today's Extremes

State Highs State Lows

Community

WunderPhotos

Upload Photos

1,843,632 photos uploaded!

WunderBlogs® & News

Nearby

Air Quality

  Air Quality AQ Index Pollutant
Not available.

Snow Depth

Station Depth Elevation

Earthquake Activity

City Distance Mag. Time & Date
Minimum magnitude displayed is 2.5.

Coastal Water Temperatures

Place Temperature

Stations

Nearby Weather Stations

Station Location Temp. Windchill Dew Point Humidity Wind Precip. Elev Updated Type